Weather reports worldwide

Advertisment
Passo Rolle, Italy (16021): temperature & dewpoint: 17.04.2018 01:00:00 - 23.04.2018 01:00:00 (CEST)Passo Rolle, Italy (16021): wind speed: 17.04.2018 01:00:00 - 23.04.2018 01:00:00 (CEST)Passo Rolle, Italy (16021): wind direction: 17.04.2018 01:00:00 - 23.04.2018 01:00:00 (CEST)Passo Rolle, Italy (16021): visibility: 17.04.2018 01:00:00 - 23.04.2018 01:00:00 (CEST)
Date & Time tt [°C] td [°C] ff [km/h] ff [kn] dd vv [km]
23.04.2018 01:00:00 - - - - - -
23.04.2018 00:00:00 - - - - - -
22.04.2018 23:00:00 6,8 5,4 4 2 N 12
22.04.2018 22:00:00 - - - - - -
22.04.2018 21:00:00 - - - - - -
22.04.2018 20:00:00 8,4 4,8 13 7 SE 25
22.04.2018 19:00:00 8,0 5,0 13 7 SE 10
22.04.2018 18:00:00 10,0 5,0 22 12 SSE 10
22.04.2018 17:00:00 10,6 5,0 18 10 SSE 35
22.04.2018 16:00:00 11,0 4,0 18 10 S 10
22.04.2018 15:00:00 12,0 3,0 18 10 S 10
22.04.2018 14:00:00 11,4 0,8 13 7 S 71
22.04.2018 13:00:00 10,0 0,0 9 5 SSE 10
22.04.2018 12:00:00 9,0 -3,0 4 2 ESE 10
22.04.2018 11:00:00 8,2 -0,5 5 3 NNE 71
22.04.2018 10:00:00 8,0 2,0 4 2 N 10
22.04.2018 09:00:00 7,0 3,0 5 3 NNW 10
22.04.2018 08:00:00 6,4 3,2 9 5 N 75
22.04.2018 07:00:00 6,0 4,0 5 3 N 10
22.04.2018 06:00:00 6,0 4,0 5 3 N 10
22.04.2018 05:00:00 6,4 3,6 8 4 N 15
22.04.2018 04:00:00 - - - - - -
22.04.2018 03:00:00 - - - - - -
22.04.2018 02:00:00 7,0 5,6 5 3 ESE 15
22.04.2018 01:00:00 - - - - - -
22.04.2018 00:00:00 - - - - - -
21.04.2018 23:00:00 7,0 6,7 15 8 ESE 15
21.04.2018 22:00:00 - - - - - -
21.04.2018 21:00:00 - - - - - -
21.04.2018 20:00:00 10,0 4,2 15 8 SE 75
21.04.2018 19:00:00 12,0 4,0 13 7 SE 10
21.04.2018 18:00:00 11,0 2,0 11 6 SE 10
21.04.2018 17:00:00 11,0 -3,9 9 5 S 75
21.04.2018 16:00:00 9,0 -3,0 5 3 ESE 10
21.04.2018 15:00:00 9,0 -2,0 13 7 ENE 10
21.04.2018 14:00:00 9,0 -0,9 16 9 ENE 75
21.04.2018 13:00:00 9,0 1,0 13 7 ENE 10
21.04.2018 12:00:00 8,0 1,0 9 5 NE 10
21.04.2018 11:00:00 8,2 0,4 5 3 NW 80
21.04.2018 10:00:00 8,0 0,0 5 3 NNW 10
21.04.2018 09:00:00 6,0 0,0 5 3 N 10
21.04.2018 08:00:00 5,2 -0,8 8 4 N 75
21.04.2018 07:00:00 5,0 -1,0 8 4 N 10
21.04.2018 06:00:00 6,0 -1,0 4 2 N 10
21.04.2018 05:00:00 6,2 -0,5 2 1 N 15
21.04.2018 04:00:00 - - - - - -
21.04.2018 03:00:00 - - - - - -
21.04.2018 02:00:00 6,4 -1,0 11 6 SE 15
21.04.2018 01:00:00 - - - - - -
21.04.2018 00:00:00 - - - - - -
20.04.2018 23:00:00 7,0 -0,7 5 3 E 15
20.04.2018 22:00:00 - - - - - -
20.04.2018 21:00:00 - - - - - -
20.04.2018 20:00:00 10,4 -5,2 2 1 N 75
20.04.2018 19:00:00 11,0 -5,0 5 3 E 10
20.04.2018 18:00:00 10,0 -5,0 2 1 ESE 10
20.04.2018 17:00:00 9,2 -5,8 4 2 ENE 75
20.04.2018 16:00:00 8,0 -6,0 11 6 NE 10
20.04.2018 15:00:00 9,0 -6,0 9 5 NE 10
20.04.2018 14:00:00 8,4 -6,6 8 4 ENE 75
20.04.2018 13:00:00 8,0 -8,0 9 5 ENE 10
20.04.2018 12:00:00 8,0 -6,0 11 6 NE 10
20.04.2018 11:00:00 7,4 -3,7 16 9 N 80
20.04.2018 10:00:00 7,0 -3,0 5 3 N 10
20.04.2018 09:00:00 6,0 -1,0 4 2 ENE 10
20.04.2018 08:00:00 4,8 -1,2 0 0 N 75
20.04.2018 07:00:00 5,0 -1,0 4 2 NNE 10
20.04.2018 06:00:00 5,0 1,0 4 2 N 10
20.04.2018 05:00:00 5,4 0,4 4 2 N 12
20.04.2018 04:00:00 - - - - - -
20.04.2018 03:00:00 - - - - - -
20.04.2018 02:00:00 5,2 2,0 5 3 NNE 12
20.04.2018 01:00:00 - - - - - -
20.04.2018 00:00:00 - - - - - -
19.04.2018 23:00:00 5,4 1,7 11 6 WNW 12
19.04.2018 22:00:00 - - - - - -
19.04.2018 21:00:00 - - - - - -
19.04.2018 20:00:00 9,4 0,8 15 8 SE 40
19.04.2018 19:00:00 10,0 1,0 16 9 SE 10
19.04.2018 18:00:00 9,0 1,0 21 11 ESE 10
19.04.2018 17:00:00 8,6 -0,7 13 7 SE 65
19.04.2018 16:00:00 9,0 -2,0 9 5 ESE 10
19.04.2018 15:00:00 8,0 -4,0 4 2 E 10
19.04.2018 14:00:00 7,2 -3,9 4 2 ENE 75
19.04.2018 13:00:00 8,0 -4,0 4 2 E 10
19.04.2018 12:00:00 7,0 -4,0 11 6 ENE 10
19.04.2018 11:00:00 6,0 -3,6 9 5 NE 75
19.04.2018 10:00:00 6,0 -3,0 2 1 - 10
19.04.2018 09:00:00 5,0 -3,0 4 2 - 10
19.04.2018 08:00:00 5,0 -3,3 9 5 NE 30
19.04.2018 07:00:00 5,0 -3,0 9 5 N 10
19.04.2018 06:00:00 5,0 -4,0 13 7 N 10
19.04.2018 05:00:00 4,8 -4,2 15 8 NNW 10
19.04.2018 04:00:00 - - - - - -
19.04.2018 03:00:00 - - - - - -
19.04.2018 02:00:00 5,8 -6,1 15 8 N 10
19.04.2018 01:00:00 - - - - - -
19.04.2018 00:00:00 - - - - - -
18.04.2018 23:00:00 5,4 -5,6 11 6 NNE 10
18.04.2018 22:00:00 - - - - - -
18.04.2018 21:00:00 - - - - - -
18.04.2018 20:00:00 8,2 -1,6 11 6 SE 70
18.04.2018 19:00:00 9,0 -6,0 13 7 SE 10
18.04.2018 18:00:00 9,0 -9,0 5 3 NE 10
18.04.2018 17:00:00 7,2 -9,2 8 4 NNE 70
18.04.2018 16:00:00 7,0 -9,0 9 5 ENE 10
18.04.2018 15:00:00 7,0 -9,0 13 7 ENE 10
18.04.2018 14:00:00 6,8 -10,4 13 7 NE 70
18.04.2018 13:00:00 6,0 -10,0 13 7 NE 10
18.04.2018 12:00:00 6,0 -8,0 8 4 N 10
18.04.2018 11:00:00 5,0 -8,1 8 4 NNE 60
18.04.2018 10:00:00 5,0 -6,0 5 3 W 10
18.04.2018 09:00:00 4,0 -4,0 5 3 N 10
18.04.2018 08:00:00 2,8 -3,8 9 5 NNW 20
18.04.2018 07:00:00 3,0 -4,0 11 6 NNW 10
18.04.2018 06:00:00 3,0 -3,0 9 5 NNW 10
18.04.2018 05:00:00 2,0 -4,5 5 3 N 10
18.04.2018 04:00:00 - - - - - -
18.04.2018 03:00:00 - - - - - -
18.04.2018 02:00:00 3,2 -3,8 4 2 N 10
18.04.2018 01:00:00 - - - - - -
18.04.2018 00:00:00 - - - - - -
17.04.2018 23:00:00 4,4 -3,1 5 3 S 12
17.04.2018 22:00:00 - - - - - -
17.04.2018 21:00:00 - - - - - -
17.04.2018 20:00:00 7,6 -3,6 13 7 NE 50
17.04.2018 19:00:00 8,0 -4,0 13 7 NNE 10
17.04.2018 18:00:00 7,0 -4,0 11 6 N 10
17.04.2018 17:00:00 6,8 -4,3 8 4 NE 50
17.04.2018 16:00:00 6,0 -4,0 13 7 NE 10
17.04.2018 15:00:00 7,0 -3,0 13 7 NE 10
17.04.2018 14:00:00 5,4 -2,2 13 7 NNE 40
17.04.2018 13:00:00 6,0 -3,0 11 6 NNE 10
17.04.2018 12:00:00 5,0 -2,0 2 1 - 10
17.04.2018 11:00:00 4,8 -0,6 4 2 NNE 40
17.04.2018 10:00:00 4,0 0,0 5 3 NNW 10
17.04.2018 09:00:00 3,0 0,0 5 3 N 10
17.04.2018 08:00:00 2,8 0,0 8 4 NNW 15
17.04.2018 07:00:00 3,0 0,0 9 5 NNW 10
17.04.2018 06:00:00 3,0 0,0 11 6 WNW 10
17.04.2018 05:00:00 2,8 0,5 4 2 N 10
17.04.2018 04:00:00 - - - - - -
17.04.2018 03:00:00 - - - - - -
17.04.2018 02:00:00 3,2 -0,3 8 4 NNW 10
17.04.2018 01:00:00 - - - - - -

tt = temperature
td = dewpoint
ff = wind speed
dd = wind direction
vv = visibility

Next stations